sensor_id;sensor_type;location;lat;lon;timestamp;temperature;humidity
27671;DHT22;15077;49.704;9.908;2022-09-09T00:01:37;19.20;55.00
27671;DHT22;15077;49.704;9.908;2022-09-09T00:04:29;19.20;55.10
27671;DHT22;15077;49.704;9.908;2022-09-09T00:09:50;19.10;55.20
27671;DHT22;15077;49.704;9.908;2022-09-09T00:16:21;19.10;55.50
27671;DHT22;15077;49.704;9.908;2022-09-09T00:19:13;19.00;55.70
27671;DHT22;15077;49.704;9.908;2022-09-09T00:24:52;19.00;56.20
27671;DHT22;15077;49.704;9.908;2022-09-09T00:30:22;18.90;58.60
27671;DHT22;15077;49.704;9.908;2022-09-09T00:33:00;18.90;57.70
27671;DHT22;15077;49.704;9.908;2022-09-09T00:35:39;18.90;57.30
27671;DHT22;15077;49.704;9.908;2022-09-09T00:38:34;18.90;58.00
27671;DHT22;15077;49.704;9.908;2022-09-09T00:41:18;18.90;59.60
27671;DHT22;15077;49.704;9.908;2022-09-09T00:57:30;18.80;58.70
27671;DHT22;15077;49.704;9.908;2022-09-09T01:03:05;18.80;58.70
27671;DHT22;15077;49.704;9.908;2022-09-09T01:12:16;18.80;59.60
27671;DHT22;15077;49.704;9.908;2022-09-09T01:15:03;18.80;59.90
27671;DHT22;15077;49.704;9.908;2022-09-09T01:17:44;18.80;59.40
27671;DHT22;15077;49.704;9.908;2022-09-09T01:20:25;18.80;59.10
27671;DHT22;15077;49.704;9.908;2022-09-09T01:28:31;18.80;59.20
27671;DHT22;15077;49.704;9.908;2022-09-09T01:31:01;18.80;59.30
27671;DHT22;15077;49.704;9.908;2022-09-09T01:33:29;18.80;59.10
27671;DHT22;15077;49.704;9.908;2022-09-09T01:36:06;18.90;59.30
27671;DHT22;15077;49.704;9.908;2022-09-09T01:38:38;18.90;59.50
27671;DHT22;15077;49.704;9.908;2022-09-09T01:41:04;18.90;59.30
27671;DHT22;15077;49.704;9.908;2022-09-09T01:43:30;18.90;59.20
27671;DHT22;15077;49.704;9.908;2022-09-09T01:46:00;18.80;59.70
27671;DHT22;15077;49.704;9.908;2022-09-09T01:48:27;18.90;60.10
27671;DHT22;15077;49.704;9.908;2022-09-09T01:50:55;18.80;59.80
27671;DHT22;15077;49.704;9.908;2022-09-09T01:53:21;18.80;59.80
27671;DHT22;15077;49.704;9.908;2022-09-09T02:02:23;18.80;60.20
27671;DHT22;15077;49.704;9.908;2022-09-09T02:05:35;18.80;60.00
27671;DHT22;15077;49.704;9.908;2022-09-09T02:08:11;18.80;60.40
27671;DHT22;15077;49.704;9.908;2022-09-09T02:11:06;18.80;60.20
27671;DHT22;15077;49.704;9.908;2022-09-09T02:13:38;18.70;60.40
27671;DHT22;15077;49.704;9.908;2022-09-09T02:16:24;18.80;60.80
27671;DHT22;15077;49.704;9.908;2022-09-09T02:21:32;18.80;60.30
27671;DHT22;15077;49.704;9.908;2022-09-09T02:24:05;18.80;59.90
27671;DHT22;15077;49.704;9.908;2022-09-09T02:26:39;18.80;59.90
27671;DHT22;15077;49.704;9.908;2022-09-09T02:29:22;18.80;59.80
27671;DHT22;15077;49.704;9.908;2022-09-09T02:31:53;18.80;59.70
27671;DHT22;15077;49.704;9.908;2022-09-09T02:34:24;18.80;59.50
27671;DHT22;15077;49.704;9.908;2022-09-09T02:36:54;18.80;59.60
27671;DHT22;15077;49.704;9.908;2022-09-09T02:39:22;18.80;59.60
27671;DHT22;15077;49.704;9.908;2022-09-09T02:41:48;18.80;59.50
27671;DHT22;15077;49.704;9.908;2022-09-09T02:44:17;18.80;59.50
27671;DHT22;15077;49.704;9.908;2022-09-09T02:57:55;18.80;59.60
27671;DHT22;15077;49.704;9.908;2022-09-09T03:00:24;18.80;59.50
27671;DHT22;15077;49.704;9.908;2022-09-09T03:02:52;18.80;60.10
27671;DHT22;15077;49.704;9.908;2022-09-09T03:05:18;18.80;59.80
27671;DHT22;15077;49.704;9.908;2022-09-09T03:07:44;18.80;59.70
27671;DHT22;15077;49.704;9.908;2022-09-09T03:10:10;18.70;59.70
27671;DHT22;15077;49.704;9.908;2022-09-09T03:12:36;18.70;60.00
27671;DHT22;15077;49.704;9.908;2022-09-09T03:15:02;18.70;59.90
27671;DHT22;15077;49.704;9.908;2022-09-09T03:17:28;18.70;60.00
27671;DHT22;15077;49.704;9.908;2022-09-09T03:19:54;18.60;60.40
27671;DHT22;15077;49.704;9.908;2022-09-09T03:22:20;18.60;60.10
27671;DHT22;15077;49.704;9.908;2022-09-09T03:24:46;18.60;60.10
27671;DHT22;15077;49.704;9.908;2022-09-09T03:27:12;18.60;60.10
27671;DHT22;15077;49.704;9.908;2022-09-09T03:29:40;18.60;60.40
27671;DHT22;15077;49.704;9.908;2022-09-09T03:32:06;18.60;60.80
27671;DHT22;15077;49.704;9.908;2022-09-09T03:34:31;18.60;60.60
27671;DHT22;15077;49.704;9.908;2022-09-09T03:36:57;18.60;60.60
27671;DHT22;15077;49.704;9.908;2022-09-09T03:39:23;18.60;60.50
27671;DHT22;15077;49.704;9.908;2022-09-09T03:41:49;18.50;60.60
27671;DHT22;15077;49.704;9.908;2022-09-09T03:44:15;18.60;60.60
27671;DHT22;15077;49.704;9.908;2022-09-09T03:46:40;18.60;60.60
27671;DHT22;15077;49.704;9.908;2022-09-09T03:49:06;18.60;60.50
27671;DHT22;15077;49.704;9.908;2022-09-09T03:51:32;18.60;60.50
27671;DHT22;15077;49.704;9.908;2022-09-09T03:54:02;18.60;60.40
27671;DHT22;15077;49.704;9.908;2022-09-09T03:56:30;18.60;60.70
27671;DHT22;15077;49.704;9.908;2022-09-09T03:58:57;18.60;60.50
27671;DHT22;15077;49.704;9.908;2022-09-09T04:01:23;18.60;60.40
27671;DHT22;15077;49.704;9.908;2022-09-09T04:03:48;18.60;60.30
27671;DHT22;15077;49.704;9.908;2022-09-09T04:06:15;18.60;60.30
27671;DHT22;15077;49.704;9.908;2022-09-09T04:08:42;18.70;60.30
27671;DHT22;15077;49.704;9.908;2022-09-09T04:11:09;18.70;60.40
27671;DHT22;15077;49.704;9.908;2022-09-09T04:13:37;18.70;60.30
27671;DHT22;15077;49.704;9.908;2022-09-09T04:16:04;18.70;60.50
27671;DHT22;15077;49.704;9.908;2022-09-09T04:18:31;18.70;60.30
27671;DHT22;15077;49.704;9.908;2022-09-09T04:20:59;18.80;60.60
27671;DHT22;15077;49.704;9.908;2022-09-09T04:23:27;18.80;60.60
27671;DHT22;15077;49.704;9.908;2022-09-09T04:25:59;18.80;60.70
27671;DHT22;15077;49.704;9.908;2022-09-09T04:28:28;18.80;60.70
27671;DHT22;15077;49.704;9.908;2022-09-09T04:30:56;18.70;61.10
27671;DHT22;15077;49.704;9.908;2022-09-09T04:33:25;18.70;61.20
27671;DHT22;15077;49.704;9.908;2022-09-09T04:35:53;18.70;61.30
27671;DHT22;15077;49.704;9.908;2022-09-09T04:38:19;18.70;61.60
27671;DHT22;15077;49.704;9.908;2022-09-09T04:40:49;18.70;61.90
27671;DHT22;15077;49.704;9.908;2022-09-09T04:43:17;18.70;61.50
27671;DHT22;15077;49.704;9.908;2022-09-09T04:45:47;18.70;61.30
27671;DHT22;15077;49.704;9.908;2022-09-09T04:48:16;18.70;61.20
27671;DHT22;15077;49.704;9.908;2022-09-09T04:51:00;18.70;61.20
27671;DHT22;15077;49.704;9.908;2022-09-09T04:53:30;18.70;61.20
27671;DHT22;15077;49.704;9.908;2022-09-09T04:56:05;18.70;61.20
27671;DHT22;15077;49.704;9.908;2022-09-09T04:58:37;18.70;61.30
27671;DHT22;15077;49.704;9.908;2022-09-09T05:01:20;18.70;61.40
27671;DHT22;15077;49.704;9.908;2022-09-09T05:03:47;18.70;61.60
27671;DHT22;15077;49.704;9.908;2022-09-09T05:06:17;18.70;61.20
27671;DHT22;15077;49.704;9.908;2022-09-09T05:08:45;18.70;61.30
27671;DHT22;15077;49.704;9.908;2022-09-09T05:11:25;18.70;61.30
27671;DHT22;15077;49.704;9.908;2022-09-09T05:13:53;18.70;61.60
27671;DHT22;15077;49.704;9.908;2022-09-09T05:16:20;18.70;61.10
27671;DHT22;15077;49.704;9.908;2022-09-09T05:18:48;18.70;60.80
27671;DHT22;15077;49.704;9.908;2022-09-09T05:21:16;18.70;61.50
27671;DHT22;15077;49.704;9.908;2022-09-09T05:23:44;18.70;61.60
27671;DHT22;15077;49.704;9.908;2022-09-09T05:26:19;18.70;61.80
27671;DHT22;15077;49.704;9.908;2022-09-09T05:28:46;18.70;62.30
27671;DHT22;15077;49.704;9.908;2022-09-09T05:31:14;18.70;62.30
27671;DHT22;15077;49.704;9.908;2022-09-09T05:33:43;18.70;62.40
27671;DHT22;15077;49.704;9.908;2022-09-09T05:36:16;18.70;62.70
27671;DHT22;15077;49.704;9.908;2022-09-09T05:38:45;18.70;62.70
27671;DHT22;15077;49.704;9.908;2022-09-09T05:41:16;18.70;62.40
27671;DHT22;15077;49.704;9.908;2022-09-09T05:43:43;18.80;62.80
27671;DHT22;15077;49.704;9.908;2022-09-09T05:46:16;18.70;63.20
27671;DHT22;15077;49.704;9.908;2022-09-09T05:48:45;18.70;62.80
27671;DHT22;15077;49.704;9.908;2022-09-09T05:51:15;18.70;62.80
27671;DHT22;15077;49.704;9.908;2022-09-09T05:53:44;18.70;62.50
27671;DHT22;15077;49.704;9.908;2022-09-09T05:56:15;18.70;62.40
27671;DHT22;15077;49.704;9.908;2022-09-09T05:58:44;18.80;62.40
27671;DHT22;15077;49.704;9.908;2022-09-09T06:03:57;18.80;62.30
27671;DHT22;15077;49.704;9.908;2022-09-09T06:06:26;18.90;62.40
27671;DHT22;15077;49.704;9.908;2022-09-09T06:08:56;18.90;62.40
27671;DHT22;15077;49.704;9.908;2022-09-09T06:11:26;18.90;62.30
27671;DHT22;15077;49.704;9.908;2022-09-09T06:13:53;18.90;62.50
27671;DHT22;15077;49.704;9.908;2022-09-09T06:16:22;18.90;62.40
27671;DHT22;15077;49.704;9.908;2022-09-09T06:18:50;18.90;62.50
27671;DHT22;15077;49.704;9.908;2022-09-09T06:21:18;18.90;62.50
27671;DHT22;15077;49.704;9.908;2022-09-09T06:23:45;18.90;62.60
27671;DHT22;15077;49.704;9.908;2022-09-09T06:26:19;18.90;62.60
27671;DHT22;15077;49.704;9.908;2022-09-09T06:28:49;18.90;62.80
27671;DHT22;15077;49.704;9.908;2022-09-09T06:31:18;18.90;63.00
27671;DHT22;15077;49.704;9.908;2022-09-09T06:33:49;18.90;62.80
27671;DHT22;15077;49.704;9.908;2022-09-09T06:36:19;18.90;63.00
27671;DHT22;15077;49.704;9.908;2022-09-09T06:38:48;18.90;62.60
27671;DHT22;15077;49.704;9.908;2022-09-09T06:41:16;18.90;62.50
27671;DHT22;15077;49.704;9.908;2022-09-09T06:43:44;19.00;62.70
27671;DHT22;15077;49.704;9.908;2022-09-09T06:48:43;19.00;62.70
27671;DHT22;15077;49.704;9.908;2022-09-09T06:51:14;19.00;62.70
27671;DHT22;15077;49.704;9.908;2022-09-09T06:53:43;19.00;63.30
27671;DHT22;15077;49.704;9.908;2022-09-09T06:58:37;19.10;62.90
27671;DHT22;15077;49.704;9.908;2022-09-09T07:01:09;19.10;63.00
27671;DHT22;15077;49.704;9.908;2022-09-09T07:03:36;19.10;63.10
27671;DHT22;15077;49.704;9.908;2022-09-09T07:06:06;19.10;63.50
27671;DHT22;15077;49.704;9.908;2022-09-09T07:08:35;19.20;63.70
27671;DHT22;15077;49.704;9.908;2022-09-09T07:11:05;19.20;63.70
27671;DHT22;15077;49.704;9.908;2022-09-09T07:13:37;19.20;63.50
27671;DHT22;15077;49.704;9.908;2022-09-09T07:16:07;19.30;63.40
27671;DHT22;15077;49.704;9.908;2022-09-09T07:18:35;19.40;63.30
27671;DHT22;15077;49.704;9.908;2022-09-09T07:21:03;19.40;63.20
27671;DHT22;15077;49.704;9.908;2022-09-09T07:23:30;19.40;63.20
27671;DHT22;15077;49.704;9.908;2022-09-09T07:25:57;19.50;63.10
27671;DHT22;15077;49.704;9.908;2022-09-09T07:28:24;19.50;63.20
27671;DHT22;15077;49.704;9.908;2022-09-09T07:30:59;19.60;63.10
27671;DHT22;15077;49.704;9.908;2022-09-09T07:33:31;19.70;63.00
27671;DHT22;15077;49.704;9.908;2022-09-09T07:36:08;19.80;63.00
27671;DHT22;15077;49.704;9.908;2022-09-09T07:38:47;19.90;62.80
27671;DHT22;15077;49.704;9.908;2022-09-09T07:41:21;20.00;62.90
27671;DHT22;15077;49.704;9.908;2022-09-09T07:43:48;20.10;62.70
27671;DHT22;15077;49.704;9.908;2022-09-09T07:46:16;20.20;62.60
27671;DHT22;15077;49.704;9.908;2022-09-09T07:48:52;20.30;62.20
27671;DHT22;15077;49.704;9.908;2022-09-09T07:51:23;20.40;61.90
27671;DHT22;15077;49.704;9.908;2022-09-09T07:54:00;20.40;61.70
27671;DHT22;15077;49.704;9.908;2022-09-09T07:56:29;20.50;62.40
27671;DHT22;15077;49.704;9.908;2022-09-09T07:58:57;20.60;61.80
27671;DHT22;15077;49.704;9.908;2022-09-09T08:01:41;20.60;61.70
27671;DHT22;15077;49.704;9.908;2022-09-09T08:04:16;20.70;61.40
27671;DHT22;15077;49.704;9.908;2022-09-09T08:06:47;20.80;61.50
27671;DHT22;15077;49.704;9.908;2022-09-09T08:09:16;20.90;61.00
27671;DHT22;15077;49.704;9.908;2022-09-09T08:11:42;20.90;60.80
27671;DHT22;15077;49.704;9.908;2022-09-09T08:14:09;21.00;60.80
27671;DHT22;15077;49.704;9.908;2022-09-09T08:16:42;21.10;60.60
27671;DHT22;15077;49.704;9.908;2022-09-09T08:19:10;21.10;60.30
27671;DHT22;15077;49.704;9.908;2022-09-09T08:21:38;21.10;60.10
27671;DHT22;15077;49.704;9.908;2022-09-09T08:24:07;21.20;60.20
27671;DHT22;15077;49.704;9.908;2022-09-09T08:26:39;21.30;60.30
27671;DHT22;15077;49.704;9.908;2022-09-09T08:29:08;21.30;60.30
27671;DHT22;15077;49.704;9.908;2022-09-09T08:31:41;21.40;60.10
27671;DHT22;15077;49.704;9.908;2022-09-09T08:34:20;21.40;59.90
27671;DHT22;15077;49.704;9.908;2022-09-09T08:36:48;21.50;59.80
27671;DHT22;15077;49.704;9.908;2022-09-09T08:39:17;21.50;59.70
27671;DHT22;15077;49.704;9.908;2022-09-09T08:44:48;21.60;59.40
27671;DHT22;15077;49.704;9.908;2022-09-09T08:47:46;21.60;59.60
27671;DHT22;15077;49.704;9.908;2022-09-09T08:53:14;21.70;59.70
27671;DHT22;15077;49.704;9.908;2022-09-09T08:55:59;21.70;59.60
27671;DHT22;15077;49.704;9.908;2022-09-09T08:58:34;21.80;59.60
27671;DHT22;15077;49.704;9.908;2022-09-09T09:08:00;21.90;59.30
27671;DHT22;15077;49.704;9.908;2022-09-09T09:10:01;22.00;59.50
27671;DHT22;15077;49.704;9.908;2022-09-09T09:12:42;22.10;59.60
27671;DHT22;15077;49.704;9.908;2022-09-09T09:15:22;22.20;58.80
27671;DHT22;15077;49.704;9.908;2022-09-09T09:17:50;22.20;58.80
27671;DHT22;15077;49.704;9.908;2022-09-09T09:20:18;22.30;58.80
27671;DHT22;15077;49.704;9.908;2022-09-09T09:22:53;22.40;58.70
27671;DHT22;15077;49.704;9.908;2022-09-09T09:25:31;22.50;58.60
27671;DHT22;15077;49.704;9.908;2022-09-09T09:31:06;22.70;57.70
27671;DHT22;15077;49.704;9.908;2022-09-09T09:36:12;22.80;57.60
27671;DHT22;15077;49.704;9.908;2022-09-09T09:38:57;22.90;57.70
27671;DHT22;15077;49.704;9.908;2022-09-09T09:41:37;23.00;56.50
27671;DHT22;15077;49.704;9.908;2022-09-09T09:44:22;23.10;56.80
27671;DHT22;15077;49.704;9.908;2022-09-09T09:47:16;23.20;56.50
27671;DHT22;15077;49.704;9.908;2022-09-09T09:49:56;23.30;56.90
27671;DHT22;15077;49.704;9.908;2022-09-09T09:52:31;23.40;57.10
27671;DHT22;15077;49.704;9.908;2022-09-09T09:55:03;23.60;56.40
27671;DHT22;15077;49.704;9.908;2022-09-09T09:57:33;23.70;56.30
27671;DHT22;15077;49.704;9.908;2022-09-09T10:00:20;23.90;55.90
27671;DHT22;15077;49.704;9.908;2022-09-09T10:02:48;24.00;55.50
27671;DHT22;15077;49.704;9.908;2022-09-09T10:05:21;24.10;54.50
27671;DHT22;15077;49.704;9.908;2022-09-09T10:07:59;24.20;53.80
27671;DHT22;15077;49.704;9.908;2022-09-09T10:17:26;24.50;53.30
27671;DHT22;15077;49.704;9.908;2022-09-09T10:20:49;24.50;52.60
27671;DHT22;15077;49.704;9.908;2022-09-09T10:26:51;24.70;52.30
27671;DHT22;15077;49.704;9.908;2022-09-09T10:29:53;24.80;52.30
27671;DHT22;15077;49.704;9.908;2022-09-09T10:38:10;25.00;51.50
27671;DHT22;15077;49.704;9.908;2022-09-09T10:52:26;24.30;49.30
27671;DHT22;15077;49.704;9.908;2022-09-09T10:55:33;24.10;49.30
27671;DHT22;15077;49.704;9.908;2022-09-09T10:58:05;23.80;49.70
27671;DHT22;15077;49.704;9.908;2022-09-09T11:00:46;23.60;50.50
27671;DHT22;15077;49.704;9.908;2022-09-09T11:03:26;23.40;51.10
27671;DHT22;15077;49.704;9.908;2022-09-09T11:06:04;23.30;51.70
27671;DHT22;15077;49.704;9.908;2022-09-09T11:08:34;23.20;52.20
27671;DHT22;15077;49.704;9.908;2022-09-09T11:14:05;23.10;53.00
27671;DHT22;15077;49.704;9.908;2022-09-09T11:16:53;23.10;53.40
27671;DHT22;15077;49.704;9.908;2022-09-09T11:19:28;23.10;53.90
27671;DHT22;15077;49.704;9.908;2022-09-09T11:22:12;23.10;53.90
27671;DHT22;15077;49.704;9.908;2022-09-09T11:24:53;23.20;54.00
27671;DHT22;15077;49.704;9.908;2022-09-09T11:27:36;23.30;53.90
27671;DHT22;15077;49.704;9.908;2022-09-09T11:34:03;23.40;53.40
27671;DHT22;15077;49.704;9.908;2022-09-09T11:36:47;23.60;53.40
27671;DHT22;15077;49.704;9.908;2022-09-09T11:42:22;23.90;53.50
27671;DHT22;15077;49.704;9.908;2022-09-09T11:44:50;24.00;53.30
27671;DHT22;15077;49.704;9.908;2022-09-09T11:47:28;24.10;53.00
27671;DHT22;15077;49.704;9.908;2022-09-09T11:52:47;24.40;51.60
27671;DHT22;15077;49.704;9.908;2022-09-09T11:55:29;24.50;52.30
27671;DHT22;15077;49.704;9.908;2022-09-09T11:58:17;24.50;51.70
27671;DHT22;15077;49.704;9.908;2022-09-09T12:00:48;24.70;51.60
27671;DHT22;15077;49.704;9.908;2022-09-09T12:06:26;24.90;51.20
27671;DHT22;15077;49.704;9.908;2022-09-09T12:09:17;25.00;48.90
27671;DHT22;15077;49.704;9.908;2022-09-09T12:11:51;25.00;49.20
27671;DHT22;15077;49.704;9.908;2022-09-09T12:17:23;25.00;50.40
27671;DHT22;15077;49.704;9.908;2022-09-09T12:20:04;25.10;50.90
27671;DHT22;15077;49.704;9.908;2022-09-09T12:28:39;25.20;50.60
27671;DHT22;15077;49.704;9.908;2022-09-09T12:31:18;25.20;50.60
27671;DHT22;15077;49.704;9.908;2022-09-09T12:33:49;25.20;50.60
27671;DHT22;15077;49.704;9.908;2022-09-09T12:36:21;25.20;50.30
27671;DHT22;15077;49.704;9.908;2022-09-09T12:38:53;25.20;50.70
27671;DHT22;15077;49.704;9.908;2022-09-09T12:41:25;25.20;50.70
27671;DHT22;15077;49.704;9.908;2022-09-09T12:44:06;25.30;50.80
27671;DHT22;15077;49.704;9.908;2022-09-09T12:46:41;25.30;50.90
27671;DHT22;15077;49.704;9.908;2022-09-09T12:49:29;25.30;50.80
27671;DHT22;15077;49.704;9.908;2022-09-09T12:52:35;25.30;50.60
27671;DHT22;15077;49.704;9.908;2022-09-09T12:55:05;25.40;50.70
27671;DHT22;15077;49.704;9.908;2022-09-09T12:57:38;25.40;50.80
27671;DHT22;15077;49.704;9.908;2022-09-09T13:00:15;25.40;51.00
27671;DHT22;15077;49.704;9.908;2022-09-09T13:02:51;25.50;50.70
27671;DHT22;15077;49.704;9.908;2022-09-09T13:05:22;25.60;50.70
27671;DHT22;15077;49.704;9.908;2022-09-09T13:07:48;25.60;50.20
27671;DHT22;15077;49.704;9.908;2022-09-09T13:10:18;25.60;47.40
27671;DHT22;15077;49.704;9.908;2022-09-09T13:12:50;25.60;47.20
27671;DHT22;15077;49.704;9.908;2022-09-09T13:15:22;25.60;47.40
27671;DHT22;15077;49.704;9.908;2022-09-09T13:18:00;25.70;47.20
27671;DHT22;15077;49.704;9.908;2022-09-09T13:20:31;25.70;46.40
27671;DHT22;15077;49.704;9.908;2022-09-09T13:22:57;25.60;47.40
27671;DHT22;15077;49.704;9.908;2022-09-09T13:25:26;25.60;47.50
27671;DHT22;15077;49.704;9.908;2022-09-09T13:28:04;25.60;48.00
27671;DHT22;15077;49.704;9.908;2022-09-09T13:30:35;25.60;46.90
27671;DHT22;15077;49.704;9.908;2022-09-09T13:33:17;25.60;47.00
27671;DHT22;15077;49.704;9.908;2022-09-09T13:36:07;25.60;45.80
27671;DHT22;15077;49.704;9.908;2022-09-09T13:38:59;25.60;46.70
27671;DHT22;15077;49.704;9.908;2022-09-09T13:41:58;25.60;44.70
27671;DHT22;15077;49.704;9.908;2022-09-09T13:44:27;25.50;45.50
27671;DHT22;15077;49.704;9.908;2022-09-09T13:47:04;25.50;45.60
27671;DHT22;15077;49.704;9.908;2022-09-09T13:49:31;25.40;45.40
27671;DHT22;15077;49.704;9.908;2022-09-09T13:52:25;25.40;45.90
27671;DHT22;15077;49.704;9.908;2022-09-09T13:54:56;25.30;46.10
27671;DHT22;15077;49.704;9.908;2022-09-09T13:57:24;25.20;46.50
27671;DHT22;15077;49.704;9.908;2022-09-09T13:59:52;25.20;46.70
27671;DHT22;15077;49.704;9.908;2022-09-09T14:02:20;25.10;46.80
27671;DHT22;15077;49.704;9.908;2022-09-09T14:04:48;25.10;47.00
27671;DHT22;15077;49.704;9.908;2022-09-09T14:07:17;25.00;47.00
27671;DHT22;15077;49.704;9.908;2022-09-09T14:09:44;25.00;47.10
27671;DHT22;15077;49.704;9.908;2022-09-09T14:12:15;25.00;46.90
27671;DHT22;15077;49.704;9.908;2022-09-09T14:14:42;24.90;47.10
27671;DHT22;15077;49.704;9.908;2022-09-09T14:17:08;24.90;47.10
27671;DHT22;15077;49.704;9.908;2022-09-09T14:19:35;24.90;47.30
27671;DHT22;15077;49.704;9.908;2022-09-09T14:22:02;24.90;47.00
27671;DHT22;15077;49.704;9.908;2022-09-09T14:24:28;24.90;46.30
27671;DHT22;15077;49.704;9.908;2022-09-09T14:26:54;24.90;44.40
27671;DHT22;15077;49.704;9.908;2022-09-09T14:29:20;24.90;43.40
27671;DHT22;15077;49.704;9.908;2022-09-09T14:31:46;25.00;43.50
27671;DHT22;15077;49.704;9.908;2022-09-09T14:34:12;25.00;43.50
27671;DHT22;15077;49.704;9.908;2022-09-09T14:36:40;25.00;44.20
27671;DHT22;15077;49.704;9.908;2022-09-09T14:39:07;25.00;44.10
27671;DHT22;15077;49.704;9.908;2022-09-09T14:41:33;25.10;44.20
27671;DHT22;15077;49.704;9.908;2022-09-09T14:43:59;25.10;44.10
27671;DHT22;15077;49.704;9.908;2022-09-09T14:46:25;25.10;44.30
27671;DHT22;15077;49.704;9.908;2022-09-09T14:48:53;25.10;44.30
27671;DHT22;15077;49.704;9.908;2022-09-09T14:51:21;25.00;44.00
27671;DHT22;15077;49.704;9.908;2022-09-09T14:53:51;25.00;44.40
27671;DHT22;15077;49.704;9.908;2022-09-09T14:56:20;25.00;44.20
27671;DHT22;15077;49.704;9.908;2022-09-09T14:58:50;24.90;43.90
27671;DHT22;15077;49.704;9.908;2022-09-09T15:01:18;24.90;44.40
27671;DHT22;15077;49.704;9.908;2022-09-09T15:03:57;24.80;45.00
27671;DHT22;15077;49.704;9.908;2022-09-09T15:06:26;24.80;45.40
27671;DHT22;15077;49.704;9.908;2022-09-09T15:08:54;24.70;45.60
27671;DHT22;15077;49.704;9.908;2022-09-09T15:11:25;24.70;45.90
27671;DHT22;15077;49.704;9.908;2022-09-09T15:13:53;24.70;45.10
27671;DHT22;15077;49.704;9.908;2022-09-09T15:16:24;24.60;44.70
27671;DHT22;15077;49.704;9.908;2022-09-09T15:18:56;24.60;44.40
27671;DHT22;15077;49.704;9.908;2022-09-09T15:21:25;24.60;44.70
27671;DHT22;15077;49.704;9.908;2022-09-09T15:23:53;24.50;44.40
27671;DHT22;15077;49.704;9.908;2022-09-09T15:26:20;24.50;44.70
27671;DHT22;15077;49.704;9.908;2022-09-09T15:28:46;24.50;44.80
27671;DHT22;15077;49.704;9.908;2022-09-09T15:31:21;24.50;44.90
27671;DHT22;15077;49.704;9.908;2022-09-09T15:33:52;24.50;45.00
27671;DHT22;15077;49.704;9.908;2022-09-09T15:36:30;24.50;45.40
27671;DHT22;15077;49.704;9.908;2022-09-09T15:39:02;24.50;45.30
27671;DHT22;15077;49.704;9.908;2022-09-09T15:41:29;24.50;45.40
27671;DHT22;15077;49.704;9.908;2022-09-09T15:43:57;24.50;45.60
27671;DHT22;15077;49.704;9.908;2022-09-09T15:49:16;24.50;45.30
27671;DHT22;15077;49.704;9.908;2022-09-09T15:51:52;24.50;45.40
27671;DHT22;15077;49.704;9.908;2022-09-09T15:54:22;24.40;45.50
27671;DHT22;15077;49.704;9.908;2022-09-09T15:56:54;24.40;45.50
27671;DHT22;15077;49.704;9.908;2022-09-09T15:59:23;24.40;45.30
27671;DHT22;15077;49.704;9.908;2022-09-09T16:01:50;24.40;45.30
27671;DHT22;15077;49.704;9.908;2022-09-09T16:04:17;24.40;45.00
27671;DHT22;15077;49.704;9.908;2022-09-09T16:09:25;24.40;44.50
27671;DHT22;15077;49.704;9.908;2022-09-09T16:11:52;24.40;44.80
27671;DHT22;15077;49.704;9.908;2022-09-09T16:14:21;24.40;45.00
27671;DHT22;15077;49.704;9.908;2022-09-09T16:16:48;24.40;44.90
27671;DHT22;15077;49.704;9.908;2022-09-09T16:19:14;24.40;45.00
27671;DHT22;15077;49.704;9.908;2022-09-09T16:21:42;24.40;45.10
27671;DHT22;15077;49.704;9.908;2022-09-09T16:24:12;24.30;45.10
27671;DHT22;15077;49.704;9.908;2022-09-09T16:26:42;24.30;45.30
27671;DHT22;15077;49.704;9.908;2022-09-09T16:29:13;24.20;45.30
27671;DHT22;15077;49.704;9.908;2022-09-09T16:31:40;24.20;45.50
27671;DHT22;15077;49.704;9.908;2022-09-09T16:34:07;24.10;45.60
27671;DHT22;15077;49.704;9.908;2022-09-09T16:36:34;24.10;45.70
27671;DHT22;15077;49.704;9.908;2022-09-09T16:39:06;24.00;45.80
27671;DHT22;15077;49.704;9.908;2022-09-09T16:41:37;23.90;45.90
27671;DHT22;15077;49.704;9.908;2022-09-09T16:44:06;23.90;46.10
27671;DHT22;15077;49.704;9.908;2022-09-09T16:46:36;23.80;46.10
27671;DHT22;15077;49.704;9.908;2022-09-09T16:49:06;23.80;46.30
27671;DHT22;15077;49.704;9.908;2022-09-09T16:51:37;23.80;46.40
27671;DHT22;15077;49.704;9.908;2022-09-09T16:54:05;23.70;46.40
27671;DHT22;15077;49.704;9.908;2022-09-09T16:56:34;23.70;46.50
27671;DHT22;15077;49.704;9.908;2022-09-09T16:59:08;23.70;46.60
27671;DHT22;15077;49.704;9.908;2022-09-09T17:01:38;23.70;46.80
27671;DHT22;15077;49.704;9.908;2022-09-09T17:04:17;23.60;46.80
27671;DHT22;15077;49.704;9.908;2022-09-09T17:06:52;23.50;46.80
27671;DHT22;15077;49.704;9.908;2022-09-09T17:09:20;23.50;46.90
27671;DHT22;15077;49.704;9.908;2022-09-09T17:11:48;23.40;46.90
27671;DHT22;15077;49.704;9.908;2022-09-09T17:14:17;23.40;47.10
27671;DHT22;15077;49.704;9.908;2022-09-09T17:16:45;23.30;47.20
27671;DHT22;15077;49.704;9.908;2022-09-09T17:19:12;23.30;47.30
27671;DHT22;15077;49.704;9.908;2022-09-09T17:21:39;23.20;47.50
27671;DHT22;15077;49.704;9.908;2022-09-09T17:24:05;23.20;47.60
27671;DHT22;15077;49.704;9.908;2022-09-09T17:26:33;23.10;47.60
27671;DHT22;15077;49.704;9.908;2022-09-09T17:28:59;23.10;47.70
27671;DHT22;15077;49.704;9.908;2022-09-09T17:31:27;23.00;47.80
27671;DHT22;15077;49.704;9.908;2022-09-09T17:33:55;23.00;48.00
27671;DHT22;15077;49.704;9.908;2022-09-09T17:36:25;22.90;48.10
27671;DHT22;15077;49.704;9.908;2022-09-09T17:38:54;22.90;48.30
27671;DHT22;15077;49.704;9.908;2022-09-09T17:41:24;22.80;48.30
27671;DHT22;15077;49.704;9.908;2022-09-09T17:43:52;22.80;48.40
27671;DHT22;15077;49.704;9.908;2022-09-09T17:46:26;22.70;48.40
27671;DHT22;15077;49.704;9.908;2022-09-09T17:48:59;22.70;48.50
27671;DHT22;15077;49.704;9.908;2022-09-09T17:51:28;22.70;48.70
27671;DHT22;15077;49.704;9.908;2022-09-09T17:54:07;22.70;48.70
27671;DHT22;15077;49.704;9.908;2022-09-09T17:56:35;22.60;48.70
27671;DHT22;15077;49.704;9.908;2022-09-09T17:59:03;22.60;48.80
27671;DHT22;15077;49.704;9.908;2022-09-09T18:01:33;22.60;48.80
27671;DHT22;15077;49.704;9.908;2022-09-09T18:04:03;22.50;48.90
27671;DHT22;15077;49.704;9.908;2022-09-09T18:06:36;22.50;48.90
27671;DHT22;15077;49.704;9.908;2022-09-09T18:09:06;22.50;49.00
27671;DHT22;15077;49.704;9.908;2022-09-09T18:11:38;22.50;49.10
27671;DHT22;15077;49.704;9.908;2022-09-09T18:14:08;22.40;49.10
27671;DHT22;15077;49.704;9.908;2022-09-09T18:16:37;22.40;49.10
27671;DHT22;15077;49.704;9.908;2022-09-09T18:19:06;22.40;49.10
27671;DHT22;15077;49.704;9.908;2022-09-09T18:21:36;22.30;49.80
27671;DHT22;15077;49.704;9.908;2022-09-09T18:24:05;22.30;49.10
27671;DHT22;15077;49.704;9.908;2022-09-09T18:26:33;22.30;49.20